Meadows Field
KBFL : now visible

Airfield :











YOU CAN JOIN US ON...

 
LOGIN :

Register | Disclaimer

   EN    FR    IT 

 









Legend :    VFR   Marginal VFR   IFR   Intensive IFR   Very Intensive IFR
Visi :
Ceiling :
>= 8 km
>= 3000ft
5 to 8 km
1000 to 3000 ft
1500m to 5 km
500 to 1000 ft
800 to 1500m
200 to 500 ft
< 800m
< 200 ft
Symbols :   Thunderstorms  Fog  Heavy snow  Heavy precipitations  Wind > 20 kt






- Airport Elevation : 510 ft
- IATA code : BFL


KBFL - Meadows Field

CURRENT METAR :
  • 220654Z 00000KT 10SM CLR 11/07 A3004 RMK AO2 SLP170 T01110067

EXPIRED METARs :
  • 220554Z 00000KT 10SM CLR 12/07 A3003 RMK AO2 SLP166 T01170067 10183 20117 51023
  • 220454Z 08005KT 10SM CLR 13/07 A3001 RMK AO2 SLP161 T01330072

TAF KBFL
Valid from the 22 at 06:00 until the 23 at 06:00 UTC


220542Z 2206/2306 25004KT P6SM SKC
TEMPO 2212/2216 4SM BR



MET'MAP, your aeronautical weather chart ! - Copyright ORBIFLY December 2007 - Disclaimer

ORBIFLY MET'MAP TEAM :

Programming & Development : Alexandra Zaïnal
Concept & Development : Baudouin d'Aumeries
Co-Development & Prog : Marc-Olivier Méhu
Technical & hardware support : Manuel Goepfert

Contact : metmap@orbifly.com




SOURCES & CREDITS :

   NOAA       Earth
Advisory